Time;durP1;ratioP1;P1;durP2;ratioP2;P2;SDS_P1;SDS_P2;PMS_P1;PMS_P2;Temp;Humidity;BMP_temperature;BMP_pressure;BME280_temperature;BME280_humidity;BME280_pressure;Samples;Min_cycle;Max_cycle;Signal;HPM_P1;HPM_P2
2022/07/07 00:00:29;;;;;;;1.10;1.10;;;21.20;63.10;;;;;;5082120;27;43527;-60
2022/07/07 00:02:57;;;;;;;1.00;1.00;;;21.20;63.00;;;;;;5081983;27;44280;-61
2022/07/07 00:05:24;;;;;;;1.05;1.05;;;21.20;63.10;;;;;;5079081;28;44118;-60
2022/07/07 00:07:52;;;;;;;0.77;0.77;;;21.20;63.10;;;;;;5082157;27;43378;-60
2022/07/07 00:10:20;;;;;;;1.10;1.00;;;21.20;63.20;;;;;;5080834;27;44274;-60
2022/07/07 00:12:48;;;;;;;1.30;1.20;;;21.20;63.20;;;;;;5081275;28;44113;-60
2022/07/07 00:15:16;;;;;;;1.08;0.98;;;21.20;63.10;;;;;;5081846;27;43854;-60
2022/07/07 00:17:43;;;;;;;1.17;1.08;;;21.20;63.10;;;;;;5081511;27;43461;-60
2022/07/07 00:20:11;;;;;;;1.77;1.20;;;21.20;63.20;;;;;;5081947;27;43395;-60
2022/07/07 00:22:39;;;;;;;1.50;1.10;;;21.20;63.20;;;;;;5079898;28;45013;-60
2022/07/07 00:25:07;;;;;;;1.30;1.20;;;21.10;63.30;;;;;;5080517;28;44003;-60
2022/07/07 00:27:34;;;;;;;1.30;1.10;;;21.10;63.30;;;;;;5081818;27;43378;-60
2022/07/07 00:30:01;;;;;;;1.80;1.00;;;21.10;63.20;;;;;;5082208;27;43604;-60
2022/07/07 00:32:30;;;;;;;1.20;1.00;;;21.20;63.20;;;;;;5080976;27;44979;-59
2022/07/07 00:34:57;;;;;;;1.38;1.15;;;21.10;63.30;;;;;;5080605;28;43430;-60
2022/07/07 00:37:24;;;;;;;1.33;1.00;;;21.10;63.20;;;;;;5082121;27;43458;-60
2022/07/07 00:39:51;;;;;;;1.10;1.10;;;21.10;63.30;;;;;;5081016;27;43620;-60
2022/07/07 00:42:19;;;;;;;1.20;1.10;;;21.10;63.20;;;;;;5081682;28;44926;-60
2022/07/07 00:44:47;;;;;;;1.38;1.10;;;21.10;63.30;;;;;;5080733;28;43534;-60
2022/07/07 00:47:14;;;;;;;1.40;1.20;;;21.10;63.20;;;;;;5081832;27;43391;-60
2022/07/07 00:49:41;;;;;;;0.85;0.85;;;21.10;63.20;;;;;;5080279;28;43572;-60
2022/07/07 00:52:10;;;;;;;1.10;0.90;;;21.20;63.30;;;;;;5081706;28;44863;-59
2022/07/07 00:54:37;;;;;;;1.10;1.00;;;21.10;63.30;;;;;;5080633;27;43424;-60
2022/07/07 00:57:05;;;;;;;1.08;1.00;;;21.10;63.30;;;;;;5081330;27;43410;-60
2022/07/07 00:59:58;;;;;;;1.20;1.10;;;21.10;63.30;;;;;;5077040;28;43365;-60
2022/07/07 01:02:30;;;;;;;1.02;1.00;;;21.10;63.40;;;;;;5079596;28;44113;-60
2022/07/07 01:04:59;;;;;;;1.00;0.90;;;21.10;63.50;;;;;;5081209;27;43930;-60
2022/07/07 01:07:27;;;;;;;0.95;0.80;;;21.10;63.50;;;;;;5079818;27;43803;-60
2022/07/07 01:09:56;;;;;;;1.02;0.85;;;21.10;63.50;;;;;;5081477;27;43578;-60
2022/07/07 01:12:24;;;;;;;1.42;1.00;;;21.10;64.20;;;;;;5080926;27;44111;-60
2022/07/07 01:14:51;;;;;;;1.08;0.98;;;21.10;63.50;;;;;;5080539;27;43457;-60
2022/07/07 01:17:19;;;;;;;1.20;0.90;;;21.10;63.50;;;;;;5081529;27;43495;-61
2022/07/07 01:19:46;;;;;;;1.38;1.00;;;21.10;63.50;;;;;;5081121;28;43639;-60
2022/07/07 01:22:15;;;;;;;0.80;0.80;;;21.10;63.40;;;;;;5080826;28;44956;-59
2022/07/07 01:24:43;;;;;;;1.42;1.10;;;21.10;63.50;;;;;;5081166;27;43438;-60
2022/07/07 01:27:17;;;;;;;1.25;1.08;;;21.10;63.50;;;;;;5081199;27;43435;-60
2022/07/07 01:29:49;;;;;;;1.33;0.95;;;21.10;63.50;;;;;;5080566;27;43525;-60
2022/07/07 01:32:17;;;;;;;1.20;1.10;;;21.10;63.50;;;;;;5072497;28;43947;-60
2022/07/07 01:34:46;;;;;;;1.00;1.00;;;21.10;63.50;;;;;;5079795;27;43517;-60
2022/07/07 01:37:13;;;;;;;1.20;1.02;;;21.10;63.50;;;;;;5083977;27;43366;-60
2022/07/07 01:39:42;;;;;;;0.98;0.85;;;21.00;63.50;;;;;;5082138;27;43631;-60
2022/07/07 01:42:10;;;;;;;1.45;0.93;;;21.00;63.50;;;;;;5083747;27;44070;-60
2022/07/07 01:44:39;;;;;;;1.67;1.13;;;21.00;63.70;;;;;;5082911;28;43832;-60
2022/07/07 01:47:08;;;;;;;2.63;1.20;;;21.10;63.70;;;;;;5084469;27;43379;-60
2022/07/07 01:49:36;;;;;;;1.00;1.00;;;21.10;63.70;;;;;;5082120;28;43606;-60
2022/07/07 01:52:05;;;;;;;1.48;1.10;;;21.00;63.60;;;;;;5082204;27;44878;-60
2022/07/07 01:54:33;;;;;;;1.25;0.90;;;21.00;63.50;;;;;;5083913;27;43504;-60
2022/07/07 01:57:01;;;;;;;1.00;0.80;;;21.00;63.60;;;;;;5084251;27;43569;-60
2022/07/07 01:59:29;;;;;;;2.25;1.05;;;21.00;63.50;;;;;;5083841;27;43524;-60
2022/07/07 02:01:57;;;;;;;1.10;1.00;;;21.00;63.50;;;;;;5084060;27;44331;-59
2022/07/07 02:04:25;;;;;;;1.67;1.10;;;21.00;63.50;;;;;;5083725;27;44097;-60
2022/07/07 02:06:52;;;;;;;1.02;1.02;;;21.00;63.50;;;;;;5082596;27;43401;-60
2022/07/07 02:09:20;;;;;;;1.15;1.05;;;21.00;63.60;;;;;;5081900;27;43470;-60
2022/07/07 02:11:47;;;;;;;1.02;0.80;;;21.00;63.60;;;;;;5083442;27;43902;-59
2022/07/07 02:14:14;;;;;;;1.48;1.23;;;21.00;63.70;;;;;;5083916;27;43498;-60
2022/07/07 02:16:42;;;;;;;1.05;1.05;;;21.00;63.60;;;;;;5083471;27;43488;-60
2022/07/07 02:19:09;;;;;;;1.02;0.85;;;21.00;63.60;;;;;;5083770;28;43532;-60
2022/07/07 02:21:36;;;;;;;1.15;0.93;;;21.00;63.60;;;;;;5082298;28;43904;-59
2022/07/07 02:24:04;;;;;;;1.00;0.90;;;21.00;63.60;;;;;;5083005;27;43515;-60
2022/07/07 02:26:33;;;;;;;1.02;0.90;;;21.00;63.60;;;;;;5084188;27;43410;-60
2022/07/07 02:29:02;;;;;;;0.60;0.60;;;21.00;63.60;;;;;;5076715;27;43918;-60
2022/07/07 02:31:30;;;;;;;1.05;0.73;;;21.00;63.60;;;;;;5082648;27;44060;-60
2022/07/07 02:33:58;;;;;;;0.93;0.82;;;21.00;63.60;;;;;;5075761;28;43470;-60
2022/07/07 02:36:25;;;;;;;1.35;0.93;;;21.00;63.60;;;;;;5083901;28;43429;-60
2022/07/07 02:38:53;;;;;;;1.10;0.82;;;21.00;63.70;;;;;;5082711;28;43656;-60
2022/07/07 02:41:20;;;;;;;0.85;0.80;;;21.00;63.60;;;;;;5078257;27;43996;-60
2022/07/07 02:43:48;;;;;;;1.50;0.95;;;21.00;63.60;;;;;;5076793;27;44227;-60
2022/07/07 02:46:15;;;;;;;1.52;0.90;;;21.00;63.60;;;;;;5078454;27;43449;-60
2022/07/07 02:48:43;;;;;;;0.90;0.90;;;21.00;63.60;;;;;;5082461;28;43462;-60
2022/07/07 02:51:10;;;;;;;0.98;0.98;;;21.00;63.60;;;;;;5084201;28;45227;-60
2022/07/07 02:53:38;;;;;;;1.00;0.88;;;21.00;63.70;;;;;;5081122;27;43867;-60
2022/07/07 02:56:05;;;;;;;1.20;1.08;;;21.00;63.80;;;;;;5083586;27;43402;-60
2022/07/07 02:58:33;;;;;;;1.40;1.02;;;21.00;63.70;;;;;;5089284;27;43589;-60
2022/07/07 03:01:00;;;;;;;1.20;0.70;;;21.00;63.70;;;;;;5082599;27;43875;-60
2022/07/07 03:03:27;;;;;;;1.45;0.90;;;21.00;63.80;;;;;;5082876;27;43855;-60
2022/07/07 03:05:56;;;;;;;1.23;0.90;;;21.00;63.80;;;;;;5082103;27;43377;-60
2022/07/07 03:08:23;;;;;;;0.90;0.90;;;21.00;63.70;;;;;;5083218;28;43593;-60
2022/07/07 03:10:58;;;;;;;1.13;1.00;;;21.00;63.80;;;;;;5083238;27;43947;-60
2022/07/07 03:13:26;;;;;;;1.30;0.90;;;20.90;63.60;;;;;;5082724;27;43963;-60
2022/07/07 03:15:54;;;;;;;1.10;0.90;;;20.90;63.70;;;;;;5082069;28;43517;-60
2022/07/07 03:18:22;;;;;;;1.35;0.93;;;21.00;63.70;;;;;;5081814;28;43733;-60
2022/07/07 03:20:51;;;;;;;1.05;0.82;;;20.90;63.70;;;;;;5082238;27;44971;-60
2022/07/07 03:23:19;;;;;;;1.13;0.75;;;21.00;63.70;;;;;;5082616;27;43432;-60
2022/07/07 03:25:47;;;;;;;0.90;0.80;;;21.00;63.80;;;;;;5081422;27;43417;-60
2022/07/07 03:28:14;;;;;;;1.08;0.90;;;20.90;63.70;;;;;;5067563;28;43689;-60
2022/07/07 03:30:41;;;;;;;1.10;1.00;;;20.90;63.70;;;;;;5082724;27;45913;-60
2022/07/07 03:33:09;;;;;;;1.55;1.05;;;20.90;63.80;;;;;;5080993;27;43658;-60
2022/07/07 03:35:38;;;;;;;1.35;0.80;;;20.90;63.80;;;;;;5081230;28;43468;-60
2022/07/07 03:38:05;;;;;;;1.67;0.82;;;20.90;63.70;;;;;;5081131;27;43414;-60
2022/07/07 03:40:34;;;;;;;1.92;1.00;;;20.90;63.80;;;;;;5080704;27;43995;-60
2022/07/07 03:43:01;;;;;;;1.52;1.00;;;20.90;63.80;;;;;;5080353;28;43427;-60
2022/07/07 03:45:29;;;;;;;1.00;0.90;;;20.90;63.80;;;;;;5081598;28;43534;-61
2022/07/07 03:47:56;;;;;;;1.95;1.05;;;20.90;63.80;;;;;;5082587;27;43588;-60
2022/07/07 03:50:24;;;;;;;1.52;0.98;;;20.90;63.90;;;;;;5082801;27;44801;-60
2022/07/07 03:52:51;;;;;;;1.33;0.90;;;20.90;63.90;;;;;;5080074;28;43694;-61
2022/07/07 03:55:19;;;;;;;1.02;0.95;;;20.90;63.80;;;;;;5081704;28;43463;-60
2022/07/07 03:57:46;;;;;;;1.92;1.20;;;20.90;63.90;;;;;;5082153;27;43588;-60
2022/07/07 04:00:14;;;;;;;1.83;0.93;;;20.90;63.90;;;;;;5081419;27;44792;-60
2022/07/07 04:02:41;;;;;;;1.98;0.70;;;20.90;63.90;;;;;;5081188;28;43786;-60
2022/07/07 04:05:08;;;;;;;1.40;0.80;;;20.90;63.80;;;;;;5081375;28;44054;-60
2022/07/07 04:07:36;;;;;;;0.90;0.90;;;20.90;63.90;;;;;;5079144;28;43620;-61
2022/07/07 04:10:04;;;;;;;1.33;0.80;;;20.90;63.90;;;;;;5079717;27;43885;-60
2022/07/07 04:12:31;;;;;;;2.08;1.00;;;20.80;63.80;;;;;;5081870;28;43427;-60
2022/07/07 04:14:59;;;;;;;1.05;0.70;;;20.80;63.80;;;;;;5080424;27;43473;-60
2022/07/07 04:17:26;;;;;;;2.83;1.17;;;20.90;63.90;;;;;;5082327;28;43474;-60
2022/07/07 04:19:54;;;;;;;1.75;1.10;;;20.90;63.90;;;;;;5082141;27;43803;-60
2022/07/07 04:22:21;;;;;;;1.42;0.80;;;20.90;63.90;;;;;;5082250;28;43380;-60
2022/07/07 04:24:48;;;;;;;1.50;1.00;;;20.80;63.80;;;;;;5080700;28;43483;-60
2022/07/07 04:27:16;;;;;;;1.58;0.82;;;20.80;63.90;;;;;;5082356;27;43581;-60
2022/07/07 04:29:43;;;;;;;1.20;0.90;;;20.90;63.90;;;;;;5081914;28;44033;-60
2022/07/07 04:32:10;;;;;;;1.92;1.15;;;20.90;63.90;;;;;;5081351;27;43863;-60
2022/07/07 04:34:38;;;;;;;1.23;0.80;;;20.90;63.90;;;;;;5079480;28;43453;-60
2022/07/07 04:37:05;;;;;;;2.13;1.13;;;20.80;63.90;;;;;;5082163;28;43558;-60
2022/07/07 04:39:33;;;;;;;2.22;0.95;;;20.80;63.80;;;;;;5081836;28;44777;-60
2022/07/07 04:42:00;;;;;;;1.40;0.90;;;20.80;63.80;;;;;;5081398;27;43781;-60
2022/07/07 04:44:27;;;;;;;2.13;0.90;;;20.80;63.80;;;;;;5080455;27;43406;-60
2022/07/07 04:46:55;;;;;;;1.20;1.05;;;20.80;63.80;;;;;;5082005;27;43528;-60
2022/07/07 04:49:22;;;;;;;2.13;1.17;;;20.80;63.90;;;;;;5081813;28;44957;-61
2022/07/07 04:51:49;;;;;;;1.65;1.17;;;20.80;63.80;;;;;;5081636;28;43415;-60
2022/07/07 04:54:17;;;;;;;2.42;1.33;;;20.80;63.90;;;;;;5080888;27;44025;-60
2022/07/07 04:56:44;;;;;;;1.35;0.98;;;20.80;63.80;;;;;;5080697;27;43592;-60
2022/07/07 04:59:12;;;;;;;1.45;0.90;;;20.80;63.80;;;;;;5087677;27;44912;-60
2022/07/07 05:01:39;;;;;;;1.90;1.13;;;20.80;63.80;;;;;;5081123;28;43982;-60
2022/07/07 05:04:06;;;;;;;1.40;1.20;;;20.80;63.80;;;;;;5079790;28;43679;-60
2022/07/07 05:06:34;;;;;;;2.75;1.08;;;20.80;63.80;;;;;;5079733;27;43565;-60
2022/07/07 05:09:01;;;;;;;1.98;1.00;;;20.80;63.80;;;;;;5081619;28;44181;-60
2022/07/07 05:11:29;;;;;;;3.05;1.15;;;20.80;64.50;;;;;;5083643;27;44045;-60
2022/07/07 05:13:56;;;;;;;2.97;1.30;;;20.80;63.80;;;;;;5081675;27;43449;-60
2022/07/07 05:16:23;;;;;;;2.10;1.08;;;20.80;63.80;;;;;;5085422;27;44041;-60
2022/07/07 05:18:51;;;;;;;2.47;1.70;;;20.80;63.80;;;;;;5084558;27;44998;-60
2022/07/07 05:21:18;;;;;;;2.08;0.93;;;20.80;63.80;;;;;;5084761;27;44031;-60
2022/07/07 05:23:46;;;;;;;1.67;1.10;;;20.80;63.80;;;;;;5082513;27;43519;-60
2022/07/07 05:26:14;;;;;;;2.22;1.13;;;20.80;63.80;;;;;;5085881;27;44062;-60
2022/07/07 05:28:41;;;;;;;2.10;1.10;;;20.80;63.80;;;;;;5084218;28;44027;-60
2022/07/07 05:31:14;;;;;;;1.80;1.20;;;20.80;63.80;;;;;;5084872;27;43567;-60
2022/07/07 05:33:42;;;;;;;3.17;1.35;;;20.80;63.80;;;;;;5083444;28;43971;-61
2022/07/07 05:36:10;;;;;;;1.77;1.38;;;20.80;63.80;;;;;;5085167;27;43573;-61
2022/07/07 05:38:37;;;;;;;3.00;1.40;;;20.80;63.90;;;;;;5084437;27;44989;-60
2022/07/07 05:41:05;;;;;;;4.05;1.77;;;20.80;63.80;;;;;;5082603;28;44118;-60
2022/07/07 05:43:32;;;;;;;2.85;1.52;;;20.80;63.80;;;;;;5083789;28;43545;-60
2022/07/07 05:45:59;;;;;;;2.10;1.02;;;20.80;63.70;;;;;;5071321;28;43498;-60
2022/07/07 05:48:27;;;;;;;2.60;1.05;;;20.80;63.70;;;;;;5084632;27;44690;-60
2022/07/07 05:50:54;;;;;;;2.05;1.13;;;20.80;63.70;;;;;;5078015;28;44123;-60
2022/07/07 05:53:22;;;;;;;1.48;0.95;;;20.80;63.70;;;;;;5081086;28;43437;-60
2022/07/07 05:55:49;;;;;;;1.65;1.27;;;20.70;63.70;;;;;;5080193;27;43363;-61
2022/07/07 05:58:17;;;;;;;1.55;0.90;;;20.80;63.70;;;;;;5079488;27;45324;-61
2022/07/07 06:00:44;;;;;;;1.30;0.98;;;20.70;63.70;;;;;;5082180;27;44297;-61
2022/07/07 06:03:11;;;;;;;2.30;1.13;;;20.70;63.70;;;;;;5083842;27;44004;-61
2022/07/07 06:05:39;;;;;;;2.60;1.42;;;20.80;63.80;;;;;;5084546;28;43394;-61
2022/07/07 06:08:06;;;;;;;2.35;1.60;;;20.70;63.80;;;;;;5083937;27;45145;-61
2022/07/07 06:10:33;;;;;;;1.52;1.05;;;20.70;63.80;;;;;;5082128;27;44155;-61
2022/07/07 06:13:02;;;;;;;2.63;1.20;;;20.70;63.80;;;;;;5083113;28;43456;-60
2022/07/07 06:15:35;;;;;;;2.90;1.40;;;20.70;63.70;;;;;;5084021;27;43552;-60
2022/07/07 06:18:03;;;;;;;1.65;1.15;;;20.70;63.80;;;;;;5084279;27;44375;-61
2022/07/07 06:20:36;;;;;;;0.90;0.77;;;20.70;63.80;;;;;;5082735;28;44699;-61
2022/07/07 06:23:04;;;;;;;1.98;1.20;;;20.80;63.80;;;;;;5082829;28;43435;-60
2022/07/07 06:25:32;;;;;;;1.65;1.17;;;20.80;63.80;;;;;;5083896;27;43477;-60
2022/07/07 06:27:59;;;;;;;3.38;1.48;;;20.80;63.80;;;;;;5084027;27;44199;-61
2022/07/07 06:30:27;;;;;;;1.80;1.23;;;20.80;63.80;;;;;;5082006;28;44105;-60
2022/07/07 06:32:55;;;;;;;2.72;1.10;;;20.80;63.80;;;;;;5074041;28;43453;-60
2022/07/07 06:35:24;;;;;;;1.98;1.23;;;20.80;63.80;;;;;;5082465;27;44016;-61
2022/07/07 06:37:55;;;;;;;1.77;1.25;;;20.70;63.80;;;;;;5082097;27;44126;-61
2022/07/07 06:40:22;;;;;;;2.20;1.13;;;20.80;63.80;;;;;;5084344;28;43485;-61
2022/07/07 06:42:50;;;;;;;1.55;1.00;;;20.80;63.80;;;;;;5083216;28;44128;-61
2022/07/07 06:45:24;;;;;;;1.25;0.90;;;20.80;63.80;;;;;;5080043;28;43434;-60
2022/07/07 06:47:52;;;;;;;1.90;1.02;;;20.80;63.80;;;;;;5080992;28;44075;-61
2022/07/07 06:50:24;;;;;;;2.55;1.15;;;20.80;63.80;;;;;;5082207;27;43537;-61
2022/07/07 06:52:52;;;;;;;2.00;1.00;;;20.80;63.80;;;;;;5083106;27;43476;-61
2022/07/07 06:55:19;;;;;;;1.35;1.08;;;20.80;63.80;;;;;;5083347;28;43579;-61
2022/07/07 06:57:46;;;;;;;2.28;1.10;;;20.70;63.70;;;;;;5088561;27;44929;-61
2022/07/07 07:00:14;;;;;;;2.13;0.98;;;20.70;63.70;;;;;;5082851;27;44290;-61
2022/07/07 07:02:43;;;;;;;1.70;1.10;;;20.70;63.80;;;;;;5083198;28;43458;-60
2022/07/07 07:05:11;;;;;;;1.90;0.90;;;20.70;63.70;;;;;;5083012;27;43477;-61
2022/07/07 07:07:39;;;;;;;1.75;1.10;;;20.70;63.80;;;;;;5081943;28;43779;-61
2022/07/07 07:10:07;;;;;;;1.20;0.75;;;20.70;63.90;;;;;;5082374;27;43923;-61
2022/07/07 07:12:34;;;;;;;2.33;1.02;;;20.80;63.90;;;;;;5082949;27;43513;-61
2022/07/07 07:15:01;;;;;;;1.52;1.08;;;20.80;63.90;;;;;;5083167;27;43433;-61
2022/07/07 07:17:29;;;;;;;1.48;0.90;;;20.70;63.80;;;;;;5076915;28;44895;-60
2022/07/07 07:19:56;;;;;;;1.58;0.80;;;20.70;63.80;;;;;;5079629;28;43585;-61
2022/07/07 07:22:24;;;;;;;1.10;1.00;;;20.80;63.90;;;;;;5083757;27;43413;-60
2022/07/07 07:24:52;;;;;;;1.30;0.90;;;20.70;63.80;;;;;;5082653;27;43466;-61
2022/07/07 07:27:19;;;;;;;2.05;1.00;;;20.70;63.80;;;;;;5082811;27;44217;-61
2022/07/07 07:29:46;;;;;;;1.48;0.82;;;20.70;63.80;;;;;;5082081;27;43887;-61
2022/07/07 07:32:14;;;;;;;1.02;0.70;;;20.70;63.80;;;;;;5081630;27;43453;-61
2022/07/07 07:34:41;;;;;;;1.17;0.80;;;20.70;63.80;;;;;;5081810;27;43461;-61
2022/07/07 07:37:09;;;;;;;0.98;0.80;;;20.70;63.80;;;;;;5082774;27;44309;-61
2022/07/07 07:39:36;;;;;;;1.35;0.95;;;20.70;63.90;;;;;;5080372;27;44815;-61
2022/07/07 07:42:04;;;;;;;1.50;0.82;;;20.70;63.80;;;;;;5082419;27;43426;-60
2022/07/07 07:47:17;;;;;;;1.30;0.77;;;20.70;63.80;;;;;;5082236;28;44962;-61
2022/07/07 07:49:44;;;;;;;1.30;0.80;;;20.70;63.90;;;;;;5082527;28;43529;-61
2022/07/07 07:52:12;;;;;;;0.82;0.70;;;20.70;64.60;;;;;;5079807;27;43423;-60
2022/07/07 07:54:39;;;;;;;1.10;0.88;;;20.70;63.90;;;;;;5082103;28;43439;-60
2022/07/07 07:57:06;;;;;;;2.15;1.00;;;20.70;64.00;;;;;;5081009;28;44045;-60
2022/07/07 07:59:34;;;;;;;0.57;0.57;;;20.70;64.00;;;;;;5066539;27;44005;-60
2022/07/07 08:02:01;;;;;;;1.98;0.82;;;20.70;63.90;;;;;;5077532;27;43541;-60
2022/07/07 08:04:28;;;;;;;1.13;0.77;;;20.70;64.00;;;;;;5083167;27;43798;-60
2022/07/07 08:06:56;;;;;;;1.92;1.10;;;20.70;64.00;;;;;;5082276;27;43993;-60
2022/07/07 08:09:24;;;;;;;1.13;0.90;;;20.70;64.00;;;;;;5076920;28;43446;-60
2022/07/07 08:11:51;;;;;;;0.88;0.70;;;20.70;63.90;;;;;;5081600;27;43481;-60
2022/07/07 08:14:18;;;;;;;1.88;0.65;;;20.80;64.00;;;;;;5083024;28;43533;-60
2022/07/07 08:16:46;;;;;;;0.70;0.70;;;20.70;64.00;;;;;;5081221;27;44014;-60
2022/07/07 08:19:17;;;;;;;1.20;0.63;;;20.80;64.10;;;;;;5080967;27;43866;-60
2022/07/07 08:21:48;;;;;;;1.40;0.82;;;20.80;64.20;;;;;;5081967;27;43485;-60
2022/07/07 08:24:15;;;;;;;0.98;0.70;;;20.70;64.10;;;;;;5081836;27;43711;-61
2022/07/07 08:26:43;;;;;;;1.10;0.80;;;20.80;64.20;;;;;;5080794;27;44301;-61
2022/07/07 08:29:10;;;;;;;2.15;1.00;;;20.80;64.10;;;;;;5082432;27;43974;-60
2022/07/07 08:31:37;;;;;;;2.08;0.88;;;20.80;64.10;;;;;;5081691;28;43445;-61
2022/07/07 08:34:05;;;;;;;1.67;0.90;;;20.80;64.20;;;;;;5081470;27;43397;-61
2022/07/07 08:36:33;;;;;;;1.77;1.05;;;20.80;64.20;;;;;;5080771;28;43908;-61
2022/07/07 08:39:01;;;;;;;1.30;1.00;;;20.80;64.30;;;;;;5082133;27;44000;-60
2022/07/07 08:41:29;;;;;;;2.20;1.17;;;20.80;64.40;;;;;;5081466;28;43461;-60
2022/07/07 08:43:56;;;;;;;1.30;0.90;;;20.80;64.40;;;;;;5081379;27;43513;-60
2022/07/07 08:46:24;;;;;;;3.03;1.02;;;20.80;64.50;;;;;;5080211;28;45117;-60
2022/07/07 08:48:53;;;;;;;1.10;0.90;;;20.80;64.50;;;;;;5081379;27;43528;-61
2022/07/07 08:51:21;;;;;;;2.05;0.75;;;20.80;64.40;;;;;;5082424;27;44079;-60
2022/07/07 08:53:48;;;;;;;1.50;1.17;;;20.80;64.30;;;;;;5081384;27;43628;-61
2022/07/07 08:56:16;;;;;;;0.68;0.68;;;20.80;64.40;;;;;;5080466;28;43963;-60
2022/07/07 08:58:45;;;;;;;1.63;0.90;;;20.80;64.50;;;;;;5086554;27;44141;-60
2022/07/07 09:01:30;;;;;;;1.13;0.90;;;20.80;64.50;;;;;;5081448;28;43458;-60
2022/07/07 09:03:58;;;;;;;2.25;0.90;;;20.90;64.50;;;;;;5081684;27;43549;-61
2022/07/07 09:06:25;;;;;;;1.50;1.05;;;20.90;64.50;;;;;;5078165;27;43910;-61
2022/07/07 09:08:54;;;;;;;0.85;0.80;;;20.90;64.60;;;;;;5081900;27;43559;-61
2022/07/07 09:11:34;;;;;;;1.92;1.05;;;20.90;64.60;;;;;;5081861;27;43444;-61
2022/07/07 09:14:15;;;;;;;0.68;0.68;;;20.90;64.50;;;;;;5080927;28;43564;-61
2022/07/07 09:16:43;;;;;;;0.95;0.85;;;20.90;64.50;;;;;;5081229;27;45154;-60
2022/07/07 09:19:18;;;;;;;1.20;0.80;;;20.80;64.50;;;;;;5081378;27;43985;-60
2022/07/07 09:21:47;;;;;;;1.52;1.00;;;20.90;64.70;;;;;;5079430;28;43383;-60
2022/07/07 09:24:15;;;;;;;1.17;1.00;;;20.90;64.60;;;;;;5081555;27;43545;-60
2022/07/07 09:26:45;;;;;;;1.65;0.90;;;20.90;64.50;;;;;;5080397;27;44954;-60
2022/07/07 09:29:18;;;;;;;0.95;0.70;;;20.90;64.60;;;;;;5081695;27;43423;-60
2022/07/07 09:32:04;;;;;;;2.00;1.15;;;20.90;64.50;;;;;;5077170;28;43389;-60
2022/07/07 09:34:34;;;;;;;1.85;0.90;;;20.90;64.50;;;;;;5080199;27;43453;-61
2022/07/07 09:39:51;;;;;;;3.75;1.00;;;20.90;64.60;;;;;;5078647;28;43431;-61
2022/07/07 09:42:37;;;;;;;0.95;0.80;;;20.90;64.60;;;;;;5081256;27;43448;-61
2022/07/07 09:45:07;;;;;;;2.83;1.13;;;20.90;64.70;;;;;;5080735;28;43476;-61
2022/07/07 09:47:35;;;;;;;1.38;0.90;;;20.90;65.40;;;;;;5080012;27;44973;-61
2022/07/07 09:50:12;;;;;;;1.77;1.10;;;20.90;64.70;;;;;;5080659;28;43558;-60
2022/07/07 09:52:41;;;;;;;1.48;1.00;;;20.90;64.70;;;;;;5086974;27;43482;-60
2022/07/07 09:55:11;;;;;;;3.15;1.02;;;20.90;64.60;;;;;;5076915;28;43526;-61
2022/07/07 09:57:40;;;;;;;1.48;0.88;;;20.90;64.70;;;;;;5076608;27;44964;-60
2022/07/07 10:00:08;;;;;;;1.50;1.10;;;20.90;64.70;;;;;;5085761;27;44648;-61
2022/07/07 10:02:41;;;;;;;3.05;1.15;;;20.90;64.70;;;;;;5082442;27;43421;-60
2022/07/07 10:05:09;;;;;;;3.88;1.10;;;20.90;64.70;;;;;;5082634;28;43914;-61
2022/07/07 10:07:37;;;;;;;2.47;1.15;;;20.90;64.80;;;;;;5080617;28;43802;-60
2022/07/07 10:10:12;;;;;;;2.78;1.00;;;20.90;64.70;;;;;;5084369;27;43500;-60
2022/07/07 10:12:45;;;;;;;3.17;1.23;;;20.90;64.80;;;;;;5082047;28;43456;-59
2022/07/07 10:15:13;;;;;;;2.75;1.05;;;20.90;64.80;;;;;;5077831;28;43569;-60
2022/07/07 10:17:43;;;;;;;1.33;1.00;;;21.00;64.80;;;;;;5081351;28;44145;-60
2022/07/07 10:20:13;;;;;;;2.80;1.20;;;20.90;64.80;;;;;;5079673;27;43388;-61
2022/07/07 10:22:42;;;;;;;3.45;1.23;;;21.00;65.10;;;;;;5080358;28;43519;-60
2022/07/07 10:25:11;;;;;;;2.83;1.35;;;20.90;64.90;;;;;;5078207;28;43582;-60
2022/07/07 10:27:44;;;;;;;2.33;1.13;;;20.90;64.80;;;;;;5075675;28;44440;-60
2022/07/07 10:30:31;;;;;;;2.78;1.38;;;21.00;65.00;;;;;;5084810;28;43426;-61
2022/07/07 10:32:59;;;;;;;4.53;1.70;;;21.00;64.90;;;;;;5078744;28;43585;-60
2022/07/07 10:35:27;;;;;;;4.78;2.42;;;21.00;64.90;;;;;;5081313;28;43482;-60
2022/07/07 10:37:57;;;;;;;2.97;1.15;;;21.00;64.90;;;;;;5079375;28;44045;-60
2022/07/07 10:40:26;;;;;;;2.78;1.27;;;21.00;64.90;;;;;;5081060;27;43574;-60
2022/07/07 10:43:09;;;;;;;4.45;1.60;;;21.00;64.70;;;;;;5078887;28;44014;-60
2022/07/07 10:45:48;;;;;;;3.17;1.25;;;21.00;64.70;;;;;;5080535;27;43737;-60
2022/07/07 10:48:42;;;;;;;3.05;1.38;;;21.10;64.60;;;;;;5080975;27;43823;-60
2022/07/07 10:51:21;;;;;;;4.15;1.50;;;21.10;64.70;;;;;;5073218;28;43496;-60
2022/07/07 10:54:06;;;;;;;2.78;1.30;;;21.00;64.40;;;;;;5090895;27;43406;-61
2022/07/07 10:56:55;;;;;;;2.90;1.45;;;21.00;64.50;;;;;;5078457;27;43638;-61
2022/07/07 10:59:27;;;;;;;3.47;1.52;;;21.10;64.60;;;;;;5070204;27;44105;-61
2022/07/07 11:02:00;;;;;;;3.38;1.25;;;21.10;64.40;;;;;;5078334;27;43732;-60
2022/07/07 11:04:44;;;;;;;2.65;1.23;;;21.10;64.40;;;;;;5072833;28;43409;-61
2022/07/07 11:07:15;;;;;;;3.50;1.33;;;21.10;64.40;;;;;;5081304;27;43488;-60
2022/07/07 11:10:01;;;;;;;3.53;1.60;;;21.10;64.30;;;;;;5082501;27;43798;-60
2022/07/07 11:12:37;;;;;;;3.72;1.38;;;21.10;64.50;;;;;;5072238;28;43514;-61
2022/07/07 11:15:32;;;;;;;2.65;1.20;;;21.10;64.40;;;;;;5082969;27;43389;-60
2022/07/07 11:18:14;;;;;;;4.70;1.40;;;21.10;64.40;;;;;;5081369;28;43583;-60
2022/07/07 11:20:59;;;;;;;5.25;1.58;;;21.10;64.20;;;;;;5083268;27;43793;-60
2022/07/07 11:23:47;;;;;;;4.75;1.38;;;21.10;64.20;;;;;;5072053;28;43536;-60
2022/07/07 11:26:23;;;;;;;2.72;1.27;;;21.20;64.30;;;;;;5070369;28;43400;-60
2022/07/07 11:28:58;;;;;;;3.33;1.25;;;21.20;64.30;;;;;;5083348;27;43499;-60
2022/07/07 11:31:27;;;;;;;3.13;1.27;;;21.20;64.30;;;;;;5078500;27;43694;-59
2022/07/07 11:33:56;;;;;;;2.95;1.50;;;21.10;64.20;;;;;;5078828;27;43543;-61
2022/07/07 11:36:28;;;;;;;3.35;1.52;;;21.10;64.20;;;;;;5071316;28;43414;-61
2022/07/07 11:38:59;;;;;;;2.33;1.45;;;21.10;64.20;;;;;;5083149;27;43468;-60
2022/07/07 11:41:44;;;;;;;2.05;1.50;;;21.10;64.10;;;;;;5081927;27;44035;-60
2022/07/07 11:44:18;;;;;;;3.22;1.60;;;21.10;64.00;;;;;;5083154;27;43399;-60
2022/07/07 11:46:52;;;;;;;2.53;1.30;;;21.20;64.10;;;;;;5082206;27;43421;-60
2022/07/07 11:49:21;;;;;;;3.28;1.40;;;21.20;64.00;;;;;;5079908;28;43554;-60
2022/07/07 11:51:49;;;;;;;2.65;1.60;;;21.20;63.90;;;;;;5077235;27;44049;-59
2022/07/07 11:54:17;;;;;;;2.63;1.40;;;21.20;63.80;;;;;;5084879;27;43536;-60
2022/07/07 11:56:45;;;;;;;2.55;1.52;;;21.30;63.80;;;;;;5093455;27;43432;-60
2022/07/07 11:59:12;;;;;;;2.65;1.40;;;21.20;63.70;;;;;;5087069;27;43530;-59
2022/07/07 12:01:43;;;;;;;3.38;1.67;;;21.30;63.80;;;;;;5094732;27;43826;-59
2022/07/07 12:04:18;;;;;;;2.92;1.42;;;21.30;63.80;;;;;;5086870;27;43446;-60
2022/07/07 12:06:45;;;;;;;2.58;1.67;;;21.30;63.70;;;;;;5093692;27;43686;-59
2022/07/07 12:09:13;;;;;;;2.53;1.60;;;21.30;63.70;;;;;;5091664;27;43562;-60
2022/07/07 12:11:41;;;;;;;2.85;1.50;;;21.30;63.70;;;;;;5092172;27;44107;-59
2022/07/07 12:14:10;;;;;;;4.78;1.60;;;21.30;63.60;;;;;;5090242;27;43532;-60
2022/07/07 12:16:45;;;;;;;2.10;1.40;;;21.30;63.60;;;;;;5089884;27;43409;-61
2022/07/07 12:19:13;;;;;;;4.07;1.60;;;21.30;63.60;;;;;;5084555;27;43654;-59
2022/07/07 12:21:49;;;;;;;4.07;1.67;;;21.30;63.70;;;;;;5080747;27;44752;-59
2022/07/07 12:24:20;;;;;;;3.03;1.50;;;21.30;63.60;;;;;;5090743;27;43518;-60
2022/07/07 12:26:50;;;;;;;3.58;1.55;;;21.30;63.70;;;;;;5086577;27;43963;-59
2022/07/07 12:29:19;;;;;;;3.15;1.67;;;21.30;63.70;;;;;;5088376;27;43446;-59
2022/07/07 12:31:49;;;;;;;5.18;1.60;;;21.30;63.80;;;;;;5091075;27;44487;-59
2022/07/07 12:34:19;;;;;;;3.15;1.38;;;21.30;63.70;;;;;;5091534;27;43487;-62
2022/07/07 12:36:48;;;;;;;3.42;1.40;;;21.30;63.70;;;;;;5088603;27;43422;-59
2022/07/07 12:39:19;;;;;;;2.78;1.58;;;21.30;63.60;;;;;;5092151;27;43474;-60
2022/07/07 12:41:51;;;;;;;3.00;1.70;;;21.30;63.50;;;;;;5096437;27;44190;-59
2022/07/07 12:44:21;;;;;;;3.28;1.52;;;21.30;63.50;;;;;;5088618;27;43473;-59
2022/07/07 12:47:08;;;;;;;3.45;1.60;;;21.30;63.50;;;;;;5087726;27;43436;-59
2022/07/07 12:49:35;;;;;;;4.85;1.50;;;21.30;63.50;;;;;;5092027;27;43488;-60
2022/07/07 12:52:12;;;;;;;2.50;1.38;;;21.30;63.40;;;;;;5088968;27;45061;-59
2022/07/07 12:54:39;;;;;;;2.63;1.30;;;21.30;63.50;;;;;;5100909;27;43608;-60
2022/07/07 12:57:08;;;;;;;3.92;1.67;;;21.30;63.40;;;;;;5095913;27;43472;-60
2022/07/07 12:59:43;;;;;;;3.78;1.50;;;21.30;63.50;;;;;;5085476;27;43435;-60
2022/07/07 13:02:14;;;;;;;3.05;1.50;;;21.30;63.40;;;;;;5088701;27;44900;-59
2022/07/07 13:04:42;;;;;;;3.30;1.50;;;21.30;63.30;;;;;;5081397;27;43478;-60